Have a Safe July 4th! 

Flight Track Log - Related Links

Times and Time Zones

All times are in EDT time to prevent confusion due to time zone crossing. See the UAL1714 flight status page for this flight to view local times or setup timezone preferences in your user account.

Time Position Orientation Groundspeed Altitude Reporting Facility
EDT Latitude Longitude Course Direction KTS MPH feet Rate Location/Type
Mon 10:24:09 AM 29.9552 -95.3380 153° Southeast 178 205 700  Level FlightAware ADS-B
Mon 10:24:24 AM 29.9433 -95.3355 170° South 186 214 1,200 1,714 Climbing FlightAware ADS-B
Mon 10:24:30 AM 29.9385 -95.3371 196° South 192 221 1,300 1,333 Climbing FlightAware ADS-B
Mon 10:24:33 AM 29.9358 -95.3387 207° Southwest 193 222 1,400 1,714 Climbing FlightAware ADS-B
Mon 10:24:37 AM 29.9331 -95.3412 219° Southwest 197 227 1,500 1,333 Climbing FlightAware ADS-B
Mon 10:24:42 AM 29.9297 -95.3451 225° Southwest 204 235 1,600 1,304 Climbing FlightAware ADS-B
Mon 10:25:00 AM 29.9175 -95.3603 227° Southwest 225 259 2,000 1,818 Climbing FlightAware ADS-B
Mon 10:25:15 AM 29.9065 -95.3741 227° Southwest 230 265 2,600 2,625 Climbing FlightAware ADS-B
Mon 10:25:32 AM 29.8946 -95.3890 227° Southwest 227 261 3,400 2,250 Climbing FlightAware ADS-B
Mon 10:25:47 AM 29.8825 -95.4036 226° Southwest 247 284 3,800 1,111 Climbing FlightAware ADS-B
Mon 10:25:59 AM 29.8725 -95.4155 226° Southwest 258 297 3,900 600 Climbing FlightAware ADS-B
Mon 10:26:07 AM 29.8673 -95.4236 233° Southwest 261 300 4,000 923 Climbing FlightAware ADS-B
Mon 10:26:12 AM 29.8644 -95.4307 245° Southwest 264 304 4,100 1,714 Climbing FlightAware ADS-B
Mon 10:26:21 AM 29.8621 -95.4428 258° West 272 313 4,400 2,000 Climbing FlightAware ADS-B
Mon 10:26:27 AM 29.8610 -95.4525 263° West 277 319 4,600 2,857 Climbing FlightAware ADS-B
Mon 10:26:42 AM 29.8588 -95.4746 263° West 274 315 5,400 2,914 Climbing FlightAware ADS-B
Mon 10:27:02 AM 29.8556 -95.5027 263° West 277 319 6,300 2,919 Climbing FlightAware ADS-B
Mon 10:27:19 AM 29.8523 -95.5277 261° West 277 319 7,200 3,000 Climbing FlightAware ADS-B
Mon 10:27:28 AM 29.8505 -95.5411 261° West 277 319 7,600 2,824 Climbing FlightAware ADS-B
Mon 10:27:36 AM 29.8490 -95.5532 262° West 277 319 8,000 2,250 Climbing FlightAware ADS-B
Mon 10:27:44 AM 29.8477 -95.5646 263° West 279 321 8,200 2,000 Climbing FlightAware ADS-B
Mon 10:27:48 AM 29.8472 -95.5703 264° West 280 322 8,400 3,000 Climbing FlightAware ADS-B
Mon 10:27:50 AM 29.8472 -95.5734 270° West 278 320 8,500 2,250 Climbing FlightAware ADS-B
Mon 10:27:56 AM 29.8483 -95.5822 278° West 276 318 8,700 2,667 Climbing FlightAware ADS-B
Mon 10:27:59 AM 29.8493 -95.5864 285° West 276 318 8,900 3,000 Climbing FlightAware ADS-B
Mon 10:28:04 AM 29.8519 -95.5934 293° West 273 314 9,100 2,250 Climbing FlightAware ADS-B
Mon 10:28:07 AM 29.8538 -95.5972 300° West 273 314 9,200 2,400 Climbing FlightAware ADS-B
Mon 10:28:09 AM 29.8550 -95.5995 301° West 273 314 9,300 2,250 Climbing FlightAware ADS-B
Mon 10:28:15 AM 29.8590 -95.6068 302° West 274 315 9,500 2,400 Climbing FlightAware ADS-B
Mon 10:28:19 AM 29.8617 -95.6117 302° West 274 315 9,700 2,667 Climbing FlightAware ADS-B
Mon 10:28:24 AM 29.8653 -95.6185 301° West 275 316 9,900 2,727 Climbing FlightAware ADS-B
Mon 10:28:41 AM 29.8755 -95.6391 300° West 276 318 10,700 2,000 Climbing FlightAware ADS-B
Mon 10:28:54 AM 29.8841 -95.6577 298° West 291 335 10,900 1,161 Climbing FlightAware ADS-B
Mon 10:29:12 AM 29.8953 -95.6821 298° West 305 351 11,300 1,935 Climbing FlightAware ADS-B
Mon 10:29:25 AM 29.9042 -95.7016 298° West 306 352 11,900 2,757 Climbing FlightAware ADS-B
Mon 10:29:49 AM 29.9198 -95.7355 298° West 304 350 13,000 2,710 Climbing FlightAware ADS-B
Mon 10:29:56 AM 29.9242 -95.7451 298° West 306 352 13,300 2,167 Climbing FlightAware ADS-B
Mon 10:30:25 AM 29.9439 -95.7876 298° West 314 361 14,300 2,200 Climbing FlightAware ADS-B
Mon 10:30:26 AM 29.9446 -95.7893 295° West 314 361 14,400 2,129 Climbing FlightAware ADS-B
Mon 10:30:56 AM 29.9653 -95.8342 298° West 319 367 15,400 2,129 Climbing FlightAware ADS-B
Mon 10:30:57 AM 29.9663 -95.8363 299° West 319 367 15,500 2,400 Climbing FlightAware ADS-B
Mon 10:31:26 AM 29.9864 -95.8800 298° West 323 372 16,600 2,118 Climbing FlightAware ADS-B
Mon 10:31:31 AM 29.9894 -95.8866 298° West 323 372 16,700 1,935 Climbing FlightAware ADS-B
Mon 10:31:57 AM 30.0079 -95.9266 298° West 329 379 17,600 2,000 Climbing FlightAware ADS-B
Mon 10:32:01 AM 30.0108 -95.9329 298° West 329 379 17,700 2,200 Climbing FlightAware ADS-B
Mon 10:32:27 AM 30.0296 -95.9738 298° West 330 380 18,700 2,129 Climbing FlightAware ADS-B
Mon 10:32:32 AM 30.0333 -95.9819 298° West 331 381 18,800 1,800 Climbing FlightAware ADS-B
Mon 10:32:57 AM 30.0515 -96.0214 298° West 334 384 19,600 1,778 Climbing FlightAware ADS-B
Mon 10:32:59 AM 30.0525 -96.0236 298° West 336 387 19,600 1,636 Level FlightAware ADS-B
Mon 10:33:08 AM 30.0594 -96.0389 298° West 337 388 19,900 2,143 Climbing FlightAware ADS-B
Mon 10:33:13 AM 30.0626 -96.0465 296° West 338 389 20,100 1,636 Climbing FlightAware ADS-B
Mon 10:33:19 AM 30.0660 -96.0558 293° West 339 390 20,200 1,846 Climbing FlightAware ADS-B
Mon 10:33:26 AM 30.0700 -96.0688 290° West 340 391 20,500 2,182 Climbing FlightAware ADS-B
Mon 10:33:30 AM 30.0715 -96.0748 286° West 340 391 20,600 1,500 Climbing FlightAware ADS-B
Mon 10:33:42 AM 30.0756 -96.0957 283° West 343 395 20,900 1,800 Climbing FlightAware ADS-B
Mon 10:33:50 AM 30.0781 -96.1117 280° West 344 396 21,200 1,800 Climbing FlightAware ADS-B
Mon 10:34:12 AM 30.0842 -96.1508 280° West 347 399 21,800 1,500 Climbing FlightAware ADS-B
Mon 10:34:26 AM 30.0880 -96.1757 280° West 348 400 22,100 1,600 Climbing FlightAware ADS-B
Mon 10:34:42 AM 30.0928 -96.2065 280° West 352 405 22,600 1,600 Climbing FlightAware ADS-B
Mon 10:34:56 AM 30.0968 -96.2319 280° West 353 406 22,900 1,313 Climbing FlightAware ADS-B
Mon 10:35:14 AM 30.1020 -96.2655 280° West 357 411 23,300 1,600 Climbing FlightAware ADS-B
Mon 10:35:26 AM 30.1056 -96.2888 280° West 358 412 23,700 1,600 Climbing FlightAware ADS-B
Mon 10:35:44 AM 30.1107 -96.3225 280° West 361 415 24,100 1,355 Climbing FlightAware ADS-B
Mon 10:35:57 AM 30.1143 -96.3462 280° West 361 415 24,400 1,548 Climbing FlightAware ADS-B
Mon 10:36:15 AM 30.1195 -96.3806 280° West 362 417 24,900 1,600 Climbing FlightAware ADS-B
Mon 10:36:27 AM 30.1230 -96.4033 280° West 364 419 25,200 1,313 Climbing FlightAware ADS-B
Mon 10:36:47 AM 30.1289 -96.4420 280° West 365 420 25,600 1,235 Climbing FlightAware ADS-B
Mon 10:37:01 AM 30.1329 -96.4686 280° West 368 423 25,900 1,400 Climbing FlightAware ADS-B
Mon 10:37:17 AM 30.1379 -96.5008 280° West 370 426 26,300 1,355 Climbing FlightAware ADS-B
Mon 10:37:32 AM 30.1422 -96.5290 280° West 371 427 26,600 1,200 Climbing FlightAware ADS-B
Mon 10:37:47 AM 30.1468 -96.5598 280° West 373 429 26,900 1,125 Climbing FlightAware ADS-B
Mon 10:38:04 AM 30.1517 -96.5918 280° West 375 432 27,200 968 Climbing FlightAware ADS-B
Mon 10:38:18 AM 30.1557 -96.6190 280° West 376 433 27,400 1,000 Climbing FlightAware ADS-B
Mon 10:38:46 AM 30.1641 -96.6747 280° West 376 433 27,900 1,200 Climbing FlightAware ADS-B
Mon 10:38:48 AM 30.1648 -96.6795 280° West 381 438 28,000 1,200 Climbing FlightAware ADS-B
Mon 10:39:16 AM 30.1733 -96.7359 280° West 383 441 28,500 1,000 Climbing FlightAware ADS-B
Mon 10:39:18 AM 30.1740 -96.7401 281° West 383 441 28,500 1,000 Level FlightAware ADS-B
Mon 10:39:46 AM 30.1824 -96.7961 280° West 384 442 29,000 1,125 Climbing FlightAware ADS-B
Mon 10:39:50 AM 30.1835 -96.8036 280° West 385 443 29,100 1,235 Climbing FlightAware ADS-B
Mon 10:40:20 AM 30.1927 -96.8651 280° West 386 444 29,700 1,082 Climbing FlightAware ADS-B
Mon 10:40:51 AM 30.2021 -96.9287 280° West 384 442 30,200 1,000 Climbing FlightAware ADS-B
Mon 10:41:02 AM 30.2054 -96.9509 280° West 387 445 30,400 1,000 Climbing FlightAware ADS-B
Mon 10:41:21 AM 30.2111 -96.9900 280° West 387 445 30,700 960 Climbing FlightAware ADS-B
Mon 10:41:52 AM 30.2203 -97.0514 280° West 388 447 31,200 1,000 Climbing FlightAware ADS-B
Mon 10:42:15 AM 30.2273 -97.1001 279° West 387 445 31,600 1,000 Climbing FlightAware ADS-B
Mon 10:42:22 AM 30.2293 -97.1135 280° West 387 445 31,700 649 Climbing FlightAware ADS-B
Mon 10:42:52 AM 30.2384 -97.1754 280° West 392 451 32,000 327 Climbing FlightAware ADS-B
Mon 10:43:17 AM 30.2460 -97.2265 280° West 387 445 32,000  Level FlightAware ADS-B
Mon 10:43:23 AM 30.2478 -97.2393 279° West 391 450 32,000  Level FlightAware ADS-B
Mon 10:43:26 AM 30.2487 -97.2453 280° West 391 450 32,000  Level FlightAware ADS-B
Mon 10:43:53 AM 30.2570 -97.3020 280° West 392 451 32,000  Level FlightAware ADS-B
Mon 10:44:21 AM 30.2653 -97.3586 280° West 392 451 32,000  Level FlightAware ADS-B
Mon 10:44:26 AM 30.2669 -97.3695 280° West 392 451 32,000  Level FlightAware ADS-B
Mon 10:44:52 AM 30.2745 -97.4222 279° West 392 451 32,000  Level FlightAware ADS-B
Mon 10:44:58 AM 30.2764 -97.4350 280° West 392 451 32,000  Level FlightAware ADS-B
Mon 10:45:33 AM 30.2868 -97.5072 279° West 393 452 32,000  Level FlightAware ADS-B
Mon 10:46:03 AM 30.2958 -97.5698 279° West 393 452 32,000  Level FlightAware ADS-B
Mon 10:46:12 AM 30.2984 -97.5878 280° West 392 451 32,000  Level FlightAware ADS-B
Mon 10:46:36 AM 30.3056 -97.6381 279° West 394 453 32,000  Level FlightAware ADS-B
Mon 10:46:42 AM 30.3075 -97.6514 279° West 394 453 32,000  Level FlightAware ADS-B
Mon 10:47:12 AM 30.3163 -97.7129 279° West 394 453 32,000  Level FlightAware ADS-B
Mon 10:47:44 AM 30.3257 -97.7794 279° West 396 456 32,000  Level FlightAware ADS-B
Mon 10:47:46 AM 30.3265 -97.7850 279° West 396 456 32,000  Level FlightAware ADS-B
Mon 10:48:32 AM 30.3390 -97.8750 279° West 396 456 32,000  Level FlightAware ADS-B
Mon 10:48:47 AM 30.3442 -97.9105 280° West 396 456 32,000  Level FlightAware ADS-B
Mon 10:48:52 AM 30.3459 -97.9224 279° West 396 456 32,000  Level FlightAware ADS-B
Mon 10:49:17 AM 30.3533 -97.9749 279° West 396 456 32,000  Level FlightAware ADS-B
Mon 10:49:25 AM 30.3556 -97.9914 279° West 396 456 32,000  Level FlightAware ADS-B
Mon 10:49:48 AM 30.3623 -98.0392 279° West 396 456 32,000  Level FlightAware ADS-B
Mon 10:50:19 AM 30.3713 -98.1037 279° West 397 457 32,000  Level FlightAware ADS-B
Mon 10:50:40 AM 30.3773 -98.1468 279° West 396 456 32,000  Level FlightAware ADS-B
Mon 10:50:49 AM 30.3801 -98.1673 279° West 397 457 32,000  Level FlightAware ADS-B
Mon 10:51:20 AM 30.3889 -98.2310 279° West 397 457 32,000  Level FlightAware ADS-B
Mon 10:51:50 AM 30.3975 -98.2941 279° West 398 458 32,000  Level FlightAware ADS-B
Mon 10:52:24 AM 30.4073 -98.3654 279° West 398 458 32,000  Level FlightAware ADS-B
Mon 10:52:55 AM 30.4164 -98.4312 279° West 399 459 32,000  Level FlightAware ADS-B
Mon 10:53:29 AM 30.4261 -98.5023 279° West 400 460 32,000  Level FlightAware ADS-B
Mon 10:54:08 AM 30.4373 -98.5852 279° West 400 460 32,000  Level FlightAware ADS-B
Mon 10:54:52 AM 30.4490 -98.6730 279° West 399 459 32,000  Level FlightAware ADS-B
Mon 10:55:32 AM 30.4600 -98.7570 279° West 399 459 32,000  Level FlightAware ADS-B
Mon 10:56:17 AM 30.4740 -98.8560 279° West 399 459 32,000  Level FlightAware ADS-B
Mon 10:56:57 AM 30.4850 -98.9380 279° West 398 458 32,000  Level FlightAware ADS-B
Mon 10:57:42 AM 30.4970 -99.0320 278° West 398 458 32,000  Level FlightAware ADS-B
Mon 10:58:22 AM 30.5080 -99.1170 279° West 398 458 32,000  Level FlightAware ADS-B
Mon 10:59:02 AM 30.5190 -99.2000 279° West 398 458 32,000  Level FlightAware ADS-B
Mon 10:59:47 AM 30.5320 -99.2980 279° West 400 460 32,000  Level FlightAware ADS-B
Mon 11:00:27 AM 30.5430 -99.3820 279° West 401 461 32,000  Level FlightAware ADS-B
Mon 11:01:12 AM 30.5550 -99.4760 278° West 402 463 32,000  Level FlightAware ADS-B
Mon 11:01:52 AM 30.5660 -99.5620 278° West 403 464 32,000  Level FlightAware ADS-B
Mon 11:02:32 AM 30.5760 -99.6470 278° West 403 464 32,000  Level FlightAware ADS-B
Mon 11:03:17 AM 30.5890 -99.7440 279° West 403 464 32,000  Level FlightAware ADS-B
Mon 11:03:57 AM 30.6010 -99.8300 279° West 404 465 32,000  Level FlightAware ADS-B
Mon 11:04:42 AM 30.6210 -99.9240 284° West 403 464 32,000  Level FlightAware ADS-B
Mon 11:05:22 AM 30.6390 -100.0060 284° West 403 464 32,000  Level FlightAware ADS-B
Mon 11:06:07 AM 30.6590 -100.1010 284° West 404 465 32,000  Level FlightAware ADS-B
Mon 11:06:47 AM 30.6770 -100.1860 284° West 404 465 32,000  Level FlightAware ADS-B
Mon 11:07:27 AM 30.6950 -100.2710 284° West 404 465 32,000  Level FlightAware ADS-B
Mon 11:08:12 AM 30.7150 -100.3650 284° West 404 465 32,000  Level FlightAware ADS-B
Mon 11:08:52 AM 30.7330 -100.4490 284° West 404 465 32,000  Level FlightAware ADS-B
Mon 11:09:37 AM 30.7530 -100.5460 284° West 404 465 32,000  Level FlightAware ADS-B
Mon 11:10:17 AM 30.7710 -100.6300 284° West 404 465 32,000  Level FlightAware ADS-B
Mon 11:11:02 AM 30.7900 -100.7230 283° West 404 465 32,000  Level FlightAware ADS-B
Mon 11:11:42 AM 30.8080 -100.8090 284° West 406 467 32,000  Level FlightAware ADS-B
Mon 11:12:22 AM 30.8250 -100.8930 283° West 408 470 32,000  Level FlightAware ADS-B
Mon 11:13:07 AM 30.8460 -100.9910 284° West 407 468 32,000  Level FlightAware ADS-B
Mon 11:13:47 AM 30.8630 -101.0760 283° West 407 468 32,000  Level FlightAware ADS-B
Mon 11:14:32 AM 30.8820 -101.1710 283° West 407 468 32,000  Level FlightAware ADS-B
Mon 11:15:12 AM 30.9000 -101.2560 284° West 407 468 32,000  Level FlightAware ADS-B
Mon 11:15:57 AM 30.9190 -101.3520 283° West 406 467 32,000  Level FlightAware ADS-B
Mon 11:16:37 AM 30.9370 -101.4390 284° West 407 468 32,000  Level FlightAware ADS-B
Mon 11:17:22 AM 30.9560 -101.5330 283° West 407 468 32,000  Level FlightAware ADS-B
Mon 11:18:02 AM 30.9730 -101.6160 283° West 407 468 32,000  Level FlightAware ADS-B
Mon 11:18:42 AM 30.9900 -101.7040 283° West 408 470 32,000  Level FlightAware ADS-B
Mon 11:19:27 AM 31.0090 -101.7980 283° West 408 470 32,000  Level FlightAware ADS-B
Mon 11:20:07 AM 31.0260 -101.8850 283° West 409 471 32,000  Level FlightAware ADS-B
Mon 11:20:52 AM 31.0460 -101.9840 283° West 409 471 32,000  Level FlightAware ADS-B
Mon 11:21:27 AM 31.0600 -102.0540 283° West 409 471 32,000  Level FlightAware ADS-B
Mon 11:22:12 AM 31.0790 -102.1550 282° West 409 471 32,000  Level FlightAware ADS-B
Mon 11:22:52 AM 31.0960 -102.2390 283° West 409 471 32,000  Level FlightAware ADS-B
Mon 11:23:37 AM 31.1140 -102.3320 283° West 410 472 32,000  Level FlightAware ADS-B
Mon 11:24:17 AM 31.1300 -102.4160 283° West 410 472 32,000  Level FlightAware ADS-B
Mon 11:24:57 AM 31.1460 -102.5020 282° West 410 472 32,000  Level FlightAware ADS-B
Mon 11:25:37 AM 31.1600 -102.5760 282° West 410 472 32,000  Level FlightAware ADS-B
Mon 11:26:17 AM 31.1730 -102.6500 282° West 410 472 32,000  Level FlightAware ADS-B
Mon 11:27:07 AM 31.1900 -102.7420 282° West 410 472 32,000  Level FlightAware ADS-B
Mon 11:27:47 AM 31.2030 -102.8160 282° West 410 472 32,000  Level FlightAware ADS-B
Mon 11:28:27 AM 31.2170 -102.8900 282° West 410 472 32,000  Level FlightAware ADS-B
Mon 11:29:07 AM 31.2300 -102.9630 282° West 410 472 32,000  Level FlightAware ADS-B
Mon 11:29:57 AM 31.2470 -103.0560 282° West 410 472 32,000  Level FlightAware ADS-B
Mon 11:30:37 AM 31.2600 -103.1290 282° West 410 472 32,000  Level FlightAware ADS-B
Mon 11:31:17 AM 31.2740 -103.2030 282° West 410 472 32,000  Level FlightAware ADS-B
Mon 11:31:57 AM 31.2870 -103.2770 282° West 410 472 32,000  Level FlightAware ADS-B
Mon 11:32:37 AM 31.3000 -103.3510 282° West 410 472 32,000  Level FlightAware ADS-B
Mon 11:33:27 AM 31.3170 -103.4430 282° West 410 472 32,000  Level FlightAware ADS-B
Mon 11:34:07 AM 31.3310 -103.5170 283° West 410 472 32,000  Level FlightAware ADS-B
Mon 11:34:41 AM 31.3839 -103.7750 283° West 415 478 32,000  Level Albuquerque Center
Mon 11:35:43 AM 31.4072 -103.9064 282° West 414 476 32,000 -48 Level Albuquerque Center
Mon 11:36:45 AM 31.4325 -104.0375 283° West 416 479 31,900 -48 Descending Albuquerque Center
Mon 11:37:47 AM 31.4569 -104.1692 282° West 415 478 31,900 48 Level Albuquerque Center
Mon 11:38:49 AM 31.4792 -104.2983 281° West 411 473 32,000 48 Climbing Albuquerque Center
Mon 11:39:51 AM 31.5072 -104.4536 282° West 409 471 32,000  Level Albuquerque Center
Mon 11:40:53 AM 31.5303 -104.5828 282° West 409 471 32,000  Level Albuquerque Center
Mon 11:41:55 AM 31.5522 -104.7136 281° West 411 473 32,000  Level Albuquerque Center
Mon 11:42:57 AM 31.5756 -104.8433 282° West 410 472 32,000 -145 Level Albuquerque Center
Mon 11:43:59 AM 31.5981 -104.9742 281° West 411 473 31,700 -732 Descending Albuquerque Center
Mon 11:45:00 AM 31.6256 -105.1339 281° West 418 481 30,500 -878 Descending Albuquerque Center
Mon 11:46:02 AM 31.6483 -105.2658 281° West 418 481 29,900 -242 Descending Albuquerque Center
Mon 11:47:04 AM 31.6714 -105.4006 281° West 422 486 30,000  Climbing Albuquerque Center
Mon 11:48:06 AM 31.6933 -105.5317 281° West 414 476 29,900  Descending Albuquerque Center
Mon 11:54:07 AM 31.8390 -106.3270 281° West 412 474 30,000 15 Climbing FlightAware ADS-B
Mon 11:54:52 AM 31.8800 -106.4080 301° West 413 475 30,000  Level FlightAware ADS-B
Mon 11:55:32 AM 31.9210 -106.4900 301° West 414 476 30,000  Level FlightAware ADS-B
Mon 11:56:17 AM 31.9640 -106.5760 301° West 416 479 30,000  Level FlightAware ADS-B
Mon 11:56:57 AM 32.0040 -106.6560 301° West 416 479 30,000  Level FlightAware ADS-B
Mon 11:57:42 AM 32.0480 -106.7430 301° West 416 479 30,000  Level FlightAware ADS-B
Mon 11:58:17 AM 32.0770 -106.8020 300° West 415 478 30,000  Level FlightAware ADS-B
Mon 11:59:07 AM 32.1180 -106.8860 300° West 415 478 30,000  Level FlightAware ADS-B
Mon 11:59:47 AM 32.1500 -106.9520 300° West 415 478 30,000  Level FlightAware ADS-B
Mon 12:00:27 PM 32.1830 -107.0190 300° West 415 478 30,000  Level FlightAware ADS-B
Mon 12:01:07 PM 32.2160 -107.0860 300° West 415 478 30,000  Level FlightAware ADS-B
Mon 12:01:47 PM 32.2480 -107.1530 299° West 415 478 30,000 1,412 Level FlightAware ADS-B
Mon 12:02:32 PM 32.3231 -107.3025 299° West 411 473 32,000 1,121 Climbing Albuquerque Center
Mon 12:03:34 PM 32.3794 -107.4178 300° West 409 471 32,000  Level Albuquerque Center
Mon 12:04:36 PM 32.4364 -107.5289 301° West 408 470 32,000  Level Albuquerque Center
Mon 12:05:38 PM 32.4931 -107.6467 300° West 407 468 32,000 -48 Level Albuquerque Center
Mon 12:06:40 PM 32.5608 -107.7878 300° West 410 472 31,900  Descending Albuquerque Center
Mon 12:07:41 PM 32.6175 -107.9025 300° West 409 471 32,000 49 Climbing Albuquerque Center
Mon 12:08:43 PM 32.6747 -108.0194 300° West 411 473 32,000  Level Albuquerque Center
Mon 12:09:45 PM 32.7308 -108.1369 300° West 413 475 32,000  Level Albuquerque Center
Mon 12:10:47 PM 32.7878 -108.2542 300° West 413 475 32,000  Level Albuquerque Center
Mon 12:11:49 PM 32.8556 -108.3958 300° West 415 478 32,000  Level Albuquerque Center
Mon 12:12:51 PM 32.9125 -108.5144 300° West 417 480 32,000  Level Albuquerque Center
Mon 12:18:57 PM 33.2670 -109.2640 300° West 418 481 32,000  Level FlightAware ADS-B
Mon 12:19:37 PM 33.3040 -109.3430 299° West 416 479 32,000  Level FlightAware ADS-B
Mon 12:20:12 PM 33.3330 -109.4050 299° West 414 476 32,000  Level FlightAware ADS-B
Mon 12:20:57 PM 33.3730 -109.4920 299° West 414 476 32,000  Level FlightAware ADS-B
Mon 12:21:52 PM 33.4160 -109.5860 299° West 414 476 32,000  Level FlightAware ADS-B
Mon 12:22:32 PM 33.4600 -109.6790 300° West 415 478 32,000  Level FlightAware ADS-B
Mon 12:23:17 PM 33.4990 -109.7640 299° West 415 478 32,000  Level FlightAware ADS-B
Mon 12:23:57 PM 33.5450 -109.8650 299° West 416 479 32,000  Level FlightAware ADS-B
Mon 12:24:42 PM 33.5880 -109.9590 299° West 415 478 32,000  Level FlightAware ADS-B
Mon 12:25:27 PM 33.6250 -110.0400 299° West 415 478 32,000  Level FlightAware ADS-B
Mon 12:26:07 PM 33.6540 -110.1020 299° West 416 479 32,000  Level FlightAware ADS-B
Mon 12:27:02 PM 33.7020 -110.2080 299° West 416 479 32,000  Level FlightAware ADS-B
Mon 12:27:47 PM 33.7500 -110.3130 299° West 413 475 32,000  Level FlightAware ADS-B
Mon 12:28:52 PM 33.8070 -110.4390 299° West 411 473 32,000  Level FlightAware ADS-B
Mon 12:29:37 PM 33.8500 -110.5350 298° West 411 473 32,000  Level FlightAware ADS-B
Mon 12:30:17 PM 33.8830 -110.6090 298° West 412 474 32,000  Level FlightAware ADS-B
Mon 12:31:02 PM 33.9220 -110.6940 299° West 413 475 32,000  Level FlightAware ADS-B
Mon 12:31:52 PM 33.9670 -110.7970 298° West 412 474 32,000  Level FlightAware ADS-B
Mon 12:32:42 PM 34.0250 -110.9250 299° West 414 476 32,000  Level FlightAware ADS-B
Mon 12:33:17 PM 34.0490 -110.9800 298° West 414 476 32,000  Level FlightAware ADS-B
Mon 12:33:57 PM 34.0830 -111.0560 298° West 415 478 32,000  Level FlightAware ADS-B
Mon 12:34:47 PM 34.1380 -111.1790 298° West 414 476 32,000  Level FlightAware ADS-B
Mon 12:35:27 PM 34.1690 -111.2500 298° West 414 476 32,000  Level FlightAware ADS-B
Mon 12:36:07 PM 34.2040 -111.3300 298° West 413 475 32,000  Level FlightAware ADS-B
Mon 12:36:47 PM 34.2390 -111.4100 298° West 413 475 32,000  Level FlightAware ADS-B
Mon 12:37:32 PM 34.2750 -111.4910 298° West 414 476 32,000  Level FlightAware ADS-B
Mon 12:38:17 PM 34.3190 -111.5910 298° West 414 476 32,000  Level FlightAware ADS-B
Mon 12:38:57 PM 34.3560 -111.6750 298° West 415 478 32,000  Level FlightAware ADS-B
Mon 12:39:32 PM 34.3820 -111.7360 297° West 415 478 32,000  Level FlightAware ADS-B
Mon 12:40:22 PM 34.4250 -111.8350 298° West 416 479 32,000  Level FlightAware ADS-B
Mon 12:41:02 PM 34.4740 -111.9480 298° West 416 479 32,000  Level FlightAware ADS-B
Mon 12:41:47 PM 34.5070 -112.0240 298° West 417 480 32,000  Level FlightAware ADS-B
Mon 12:42:27 PM 34.5490 -112.1230 297° West 420 483 32,000  Level FlightAware ADS-B
Mon 12:43:12 PM 34.5900 -112.2170 298° West 420 483 32,000  Level FlightAware ADS-B
Mon 12:43:52 PM 34.6270 -112.3040 297° West 422 486 32,000  Level FlightAware ADS-B
Mon 12:44:37 PM 34.6660 -112.3940 298° West 420 483 32,000  Level FlightAware ADS-B
Mon 12:45:17 PM 34.7010 -112.4770 297° West 420 483 32,000  Level FlightAware ADS-B
Mon 12:46:02 PM 34.7440 -112.5700 299° West 421 484 32,000  Level FlightAware ADS-B
Mon 12:46:42 PM 34.7670 -112.6200 299° West 419 482 32,000  Level FlightAware ADS-B
Mon 12:47:22 PM 34.8210 -112.7380 299° West 418 481 32,000  Level FlightAware ADS-B
Mon 12:47:57 PM 34.8510 -112.8050 299° West 417 480 32,000  Level FlightAware ADS-B
Mon 12:49:17 PM 34.9220 -112.9610 299° West 415 478 32,000  Level FlightAware ADS-B
Mon 12:50:02 PM 34.9670 -113.0600 299° West 415 478 32,000  Level FlightAware ADS-B
Mon 12:50:42 PM 35.0050 -113.1430 299° West 416 479 32,000  Level FlightAware ADS-B
Mon 12:51:22 PM 35.0400 -113.2220 298° West 416 479 32,000  Level FlightAware ADS-B
Mon 12:52:07 PM 35.0850 -113.3220 299° West 416 479 32,000  Level FlightAware ADS-B
Mon 12:52:47 PM 35.1200 -113.4000 299° West 416 479 32,000  Level FlightAware ADS-B
Mon 12:53:27 PM 35.1580 -113.4830 299° West 417 480 32,000  Level FlightAware ADS-B
Mon 12:54:12 PM 35.2000 -113.5790 298° West 418 481 32,000  Level FlightAware ADS-B
Mon 12:54:52 PM 35.2370 -113.6610 299° West 419 482 32,000  Level FlightAware ADS-B
Mon 12:55:37 PM 35.2800 -113.7580 299° West 418 481 32,000  Level FlightAware ADS-B
Mon 12:56:17 PM 35.3160 -113.8400 298° West 418 481 32,000  Level FlightAware ADS-B
Mon 12:56:57 PM 35.3530 -113.9240 298° West 418 481 32,000  Level FlightAware ADS-B
Mon 12:57:42 PM 35.3930 -114.0140 299° West 418 481 32,000  Level FlightAware ADS-B
Mon 12:58:22 PM 35.4310 -114.1000 298° West 418 481 32,000  Level FlightAware ADS-B
Mon 12:59:02 PM 35.4670 -114.1830 298° West 417 480 32,000  Level FlightAware ADS-B
Mon 12:59:47 PM 35.5090 -114.2790 298° West 415 478 32,000  Level FlightAware ADS-B
Mon 01:00:27 PM 35.5450 -114.3610 298° West 416 479 32,000  Level FlightAware ADS-B
Mon 01:01:07 PM 35.5810 -114.4440 298° West 416 479 32,000  Level FlightAware ADS-B
Mon 01:01:52 PM 35.6210 -114.5360 298° West 416 479 32,000  Level FlightAware ADS-B
Mon 01:02:32 PM 35.6560 -114.6170 298° West 418 481 32,000  Level FlightAware ADS-B
Mon 01:03:17 PM 35.7000 -114.7180 298° West 418 481 32,000  Level FlightAware ADS-B
Mon 01:03:57 PM 35.7350 -114.8000 298° West 419 482 32,000  Level FlightAware ADS-B
Mon 01:04:37 PM 35.7700 -114.8820 298° West 420 483 32,000  Level FlightAware ADS-B
Mon 01:05:22 PM 35.8120 -114.9780 298° West 421 484 32,000  Level FlightAware ADS-B
Mon 01:06:02 PM 35.8480 -115.0640 297° West 422 486 32,000  Level FlightAware ADS-B
Mon 01:06:47 PM 35.8900 -115.1620 298° West 421 484 32,000  Level FlightAware ADS-B
Mon 01:07:27 PM 35.9250 -115.2450 298° West 419 482 32,000  Level FlightAware ADS-B
Mon 01:08:07 PM 35.9610 -115.3300 298° West 415 478 32,000  Level FlightAware ADS-B
Mon 01:08:52 PM 36.0000 -115.4220 298° West 415 478 32,000  Level FlightAware ADS-B
Mon 01:09:32 PM 36.0360 -115.5060 298° West 414 476 32,000  Level FlightAware ADS-B
Mon 01:10:17 PM 36.0760 -115.6030 297° West 415 478 32,000  Level FlightAware ADS-B
Mon 01:10:57 PM 36.1110 -115.6860 298° West 414 476 32,000  Level FlightAware ADS-B
Mon 01:11:37 PM 36.1470 -115.7710 298° West 414 476 32,000  Level FlightAware ADS-B
Mon 01:12:22 PM 36.1850 -115.8630 297° West 414 476 32,000  Level FlightAware ADS-B
Mon 01:13:02 PM 36.2300 -115.9410 306° West 417 480 32,000  Level FlightAware ADS-B
Mon 01:13:42 PM 36.2800 -116.0110 312° West 417 480 32,000  Level FlightAware ADS-B
Mon 01:14:27 PM 36.3350 -116.0880 312° West 417 480 32,000  Level FlightAware ADS-B
Mon 01:15:02 PM 36.3800 -116.1520 311° West 415 478 32,000  Level FlightAware ADS-B
Mon 01:15:52 PM 36.4450 -116.2440 311° West 415 478 32,000  Level FlightAware ADS-B
Mon 01:16:47 PM 36.5120 -116.3380 312° West 415 478 32,000  Level FlightAware ADS-B
Mon 01:17:27 PM 36.5540 -116.3990 311° West 415 478 32,000  Level FlightAware ADS-B
Mon 01:18:07 PM 36.5970 -116.4600 311° West 415 478 32,000  Level FlightAware ADS-B
Mon 01:18:47 PM 36.6400 -116.5220 311° West 415 478 32,000  Level FlightAware ADS-B
Mon 01:19:27 PM 36.6830 -116.5830 311° West 415 478 32,000  Level FlightAware ADS-B
Mon 01:20:17 PM 36.7360 -116.6600 311° West 415 478 32,000  Level FlightAware ADS-B
Mon 01:20:57 PM 36.7790 -116.7210 311° West 415 478 32,000  Level FlightAware ADS-B
Mon 01:21:37 PM 36.8220 -116.7830 311° West 415 478 32,000  Level FlightAware ADS-B
Mon 01:22:17 PM 36.8650 -116.8440 311° West 415 478 32,000  Level FlightAware ADS-B
Mon 01:23:07 PM 36.9180 -116.9210 311° West 415 478 32,000  Level FlightAware ADS-B
Mon 01:23:47 PM 36.9610 -116.9830 311° West 415 478 32,000  Level FlightAware ADS-B
Mon 01:24:27 PM 37.1340 -117.1230 327° Northwest 414 476 32,000  Level FlightAware ADS-B
Mon 01:25:12 PM 37.2050 -117.2040 318° Northwest 413 475 32,000  Level FlightAware ADS-B
Mon 01:25:57 PM 37.2660 -117.2730 318° Northwest 411 473 32,000  Level FlightAware ADS-B
Mon 01:26:37 PM 37.3160 -117.3370 314° West 410 472 32,000  Level FlightAware ADS-B
Mon 01:27:22 PM 37.3730 -117.4230 310° West 409 471 32,000  Level FlightAware ADS-B
Mon 01:27:57 PM 37.4130 -117.4840 310° West 409 471 32,000  Level FlightAware ADS-B
Mon 01:28:42 PM 37.4630 -117.5610 309° West 409 471 32,000  Level FlightAware ADS-B
Mon 01:29:22 PM 37.5030 -117.6240 309° West 409 471 32,000  Level FlightAware ADS-B
Mon 01:29:57 PM 37.5610 -117.7080 311° West 410 472 32,000  Level FlightAware ADS-B
Mon 01:30:52 PM 37.6220 -117.8020 309° West 410 472 32,000  Level FlightAware ADS-B
Mon 01:31:32 PM 37.6620 -117.8650 309° West 410 472 32,000  Level FlightAware ADS-B
Mon 01:32:12 PM 37.7030 -117.9280 309° West 410 472 32,000  Level FlightAware ADS-B
Mon 01:32:52 PM 37.7440 -117.9920 309° West 410 472 32,000  Level FlightAware ADS-B
Mon 01:33:32 PM 37.7840 -118.0550 309° West 410 472 32,000  Level FlightAware ADS-B
Mon 01:34:12 PM 37.8250 -118.1190 309° West 410 472 32,000  Level FlightAware ADS-B
Mon 01:35:02 PM 37.8760 -118.1980 309° West 410 472 32,000  Level FlightAware ADS-B
Mon 01:35:42 PM 37.9160 -118.2620 308° West 410 472 32,000  Level FlightAware ADS-B
Mon 01:36:22 PM 37.9570 -118.3250 310° West 410 472 32,000  Level FlightAware ADS-B
Mon 01:37:02 PM 37.9970 -118.3890 308° West 410 472 32,000  Level FlightAware ADS-B
Mon 01:37:52 PM 38.0480 -118.4680 309° West 410 472 32,000  Level FlightAware ADS-B
Mon 01:38:32 PM 38.0890 -118.5320 309° West 410 472 32,000  Level FlightAware ADS-B
Mon 01:39:12 PM 38.1290 -118.5960 308° West 410 472 32,000  Level FlightAware ADS-B
Mon 01:39:52 PM 38.1700 -118.6590 310° West 410 472 32,000 -706 Level FlightAware ADS-B
Mon 01:42:02 PM 38.4210 -119.0420 310° West 395 455 30,000 -706 Descending FlightAware ADS-B
Mon 01:42:42 PM 38.4660 -119.1150 308° West 397 457 30,000  Level FlightAware ADS-B
Mon 01:43:27 PM 38.5160 -119.1940 309° West 396 456 30,000  Level FlightAware ADS-B
Mon 01:44:07 PM 38.5600 -119.2640 309° West 396 456 30,000 -75 Level FlightAware ADS-B
Mon 01:44:47 PM 38.6050 -119.3370 308° West 394 453 29,900 -560 Descending FlightAware ADS-B
Mon 01:45:22 PM 38.6330 -119.4220 293° West 393 452 29,300 -450 Descending FlightAware ADS-B
Mon 01:46:07 PM 38.6520 -119.5100 285° West 393 452 29,300 -629 Level FlightAware ADS-B
Mon 01:47:07 PM 38.6850 -119.6440 288° West 393 452 28,200 -1,200 Descending FlightAware ADS-B
Mon 01:47:47 PM 38.7060 -119.7340 287° West 386 444 27,300 -1,412 Descending FlightAware ADS-B
Mon 01:48:32 PM 38.7290 -119.8320 287° West 375 432 26,200 -943 Descending FlightAware ADS-B
Mon 01:48:57 PM 38.7400 -119.8830 285° West 375 432 26,200 -1,029 Level FlightAware ADS-B
Mon 01:49:42 PM 38.7630 -119.9830 286° West 368 423 25,000 -1,412 Descending FlightAware ADS-B
Mon 01:50:22 PM 38.7830 -120.0700 286° West 363 418 24,200 -1,129 Descending FlightAware ADS-B
Mon 01:51:07 PM 38.8040 -120.1600 287° West 359 413 23,400 -1,482 Descending FlightAware ADS-B
Mon 01:51:47 PM 38.8220 -120.2410 286° West 351 404 22,100 -1,906 Descending FlightAware ADS-B
Mon 01:52:32 PM 38.8420 -120.3290 286° West 342 394 20,700 -1,765 Descending FlightAware ADS-B
Mon 01:53:12 PM 38.8580 -120.4010 286° West 334 384 19,600 -1,680 Descending FlightAware ADS-B
Mon 01:53:47 PM 38.8730 -120.4640 287° West 328 377 18,600 -1,835 Descending FlightAware ADS-B
Mon 01:54:37 PM 38.8940 -120.5590 286° West 322 371 17,000 -1,933 Descending FlightAware ADS-B
Mon 01:55:17 PM 38.9110 -120.6340 286° West 320 368 15,700 -1,835 Descending FlightAware ADS-B
Mon 01:56:02 PM 38.9290 -120.7150 286° West 316 364 14,400 -1,765 Descending FlightAware ADS-B
Mon 01:56:42 PM 38.9450 -120.7890 286° West 315 362 13,200 -1,800 Descending FlightAware ADS-B
Mon 01:57:22 PM 38.9620 -120.8610 287° West 314 361 12,000 -1,765 Descending FlightAware ADS-B
Mon 01:58:07 PM 38.9790 -120.9420 285° West 314 361 10,700 -1,200 Descending FlightAware ADS-B
Mon 01:59:02 PM 38.9810 -121.0440 271° West 322 371 10,000 -600 Descending FlightAware ADS-B
Mon 01:59:17 PM 38.9750 -121.0690 253° West 324 373 10,000  Level FlightAware ADS-B
Mon 01:59:42 PM 38.9620 -121.1170 251° West 326 375 10,000  Level FlightAware ADS-B
Mon 02:00:12 PM 38.9480 -121.1730 252° West 325 374 10,000  Level FlightAware ADS-B
Mon 02:00:37 PM 38.9360 -121.2180 251° West 325 374 10,000 -218 Level FlightAware ADS-B
Mon 02:01:07 PM 38.9250 -121.2730 256° West 309 356 9,800 -400 Descending FlightAware ADS-B
Mon 02:01:22 PM 38.9220 -121.3010 262° West 294 338 9,700 -1,200 Descending FlightAware ADS-B
Mon 02:01:52 PM 38.9150 -121.3530 260° West 297 342 8,900 -1,527 Descending FlightAware ADS-B
Mon 02:02:17 PM 38.9100 -121.3970 262° West 294 338 8,300 -1,350 Descending FlightAware ADS-B
Mon 02:02:32 PM 38.9070 -121.4230 262° West 293 337 8,000 -1,333 Descending FlightAware ADS-B
Mon 02:03:02 PM 38.9010 -121.4730 261° West 291 335 7,300 -1,309 Descending FlightAware ADS-B
Mon 02:03:27 PM 38.8950 -121.5160 260° West 290 334 6,800 -1,309 Descending FlightAware ADS-B
Mon 02:03:57 PM 38.8870 -121.5670 259° West 285 328 6,100 -1,309 Descending FlightAware ADS-B
Mon 02:04:22 PM 38.8820 -121.6070 261° West 282 325 5,600 -1,200 Descending FlightAware ADS-B
Mon 02:04:52 PM 38.8740 -121.6560 258° West 278 320 5,000 -1,200 Descending FlightAware ADS-B
Mon 02:05:07 PM 38.8610 -121.6760 230° Southwest 283 326 4,700 -1,000 Descending FlightAware ADS-B
Mon 02:05:22 PM 38.8450 -121.6870 208° Southwest 278 320 4,500 -1,000 Descending FlightAware ADS-B
Mon 02:05:37 PM 38.8260 -121.6900 187° South 288 331 4,200 -1,050 Descending FlightAware ADS-B
Mon 02:06:02 PM 38.7930 -121.6940 185° South 288 331 3,800 -873 Descending FlightAware ADS-B
Mon 02:06:32 PM 38.7550 -121.6940 180° South 276 318 3,400 -800 Descending FlightAware ADS-B
Mon 02:06:47 PM 38.7330 -121.6940 180° South 275 316 3,200 -600 Descending FlightAware ADS-B
Mon 02:07:12 PM 38.6970 -121.6960 182° South 258 297 3,000 -545 Descending FlightAware ADS-B
Mon 02:07:42 PM 38.6640 -121.6970 181° South 236 272 2,700 -667 Descending FlightAware ADS-B
Mon 02:07:57 PM 38.6490 -121.6970 180° South 232 267 2,500 -900 Descending FlightAware ADS-B
Mon 02:08:22 PM 38.6230 -121.6900 168° South 223 257 2,100 -900 Descending FlightAware ADS-B
Mon 02:08:37 PM 38.6150 -121.6750 124° Southeast 208 239 1,900 -720 Descending FlightAware ADS-B
Mon 02:08:47 PM 38.6130 -121.6640 103° East 194 223 1,800 -133 Descending FlightAware ADS-B
Mon 02:09:22 PM 38.6150 -121.6260 86° East 183 211 1,800 -200 Level FlightAware ADS-B
Mon 02:09:47 PM 38.6160 -121.5990 87° East 182 209 1,600 -600 Descending FlightAware ADS-B
Mon 02:10:02 PM 38.6210 -121.5860 64° Northeast 161 185 1,400 -800 Descending FlightAware ADS-B
Mon 02:10:17 PM 38.6300 -121.5820 19° North 147 169 1,200 -800 Descending FlightAware ADS-B
Mon 02:10:32 PM 38.6410 -121.5810 North 141 162 1,000 -720 Descending FlightAware ADS-B
Mon 02:10:42 PM 38.6470 -121.5810 360° North 143 165 900 -900 Descending FlightAware ADS-B
Mon 02:11:12 PM 38.6670 -121.5810 360° North 147 169 400 -1,067 Descending FlightAware ADS-B
Mon 02:11:27 PM 38.6780 -121.5810 360° North 148 170 100 -1,200 Descending FlightAware ADS-B
Mon 02:12:02 PM 38.7010 -121.5800 North 149 171 -171 Descending FlightAware ADS-B

Login

Don't have an account? Register now (free) for customized features, flight alerts, and more!